sensor_id;sensor_type;location;lat;lon;timestamp;temperature;humidity
45729;DHT22;31439;53.512;10.206;2023-07-31T00:01:39;15.00;99.90
45729;DHT22;31439;53.512;10.206;2023-07-31T00:04:08;15.00;99.90
45729;DHT22;31439;53.512;10.206;2023-07-31T00:06:36;15.00;99.90
45729;DHT22;31439;53.512;10.206;2023-07-31T00:09:01;15.00;99.90
45729;DHT22;31439;53.512;10.206;2023-07-31T00:11:34;15.10;99.90
45729;DHT22;31439;53.512;10.206;2023-07-31T00:14:00;13.90;99.90
45729;DHT22;31439;53.512;10.206;2023-07-31T00:16:28;15.00;99.90
45729;DHT22;31439;53.512;10.206;2023-07-31T00:18:57;15.10;99.90
45729;DHT22;31439;53.512;10.206;2023-07-31T00:21:25;15.10;99.90
45729;DHT22;31439;53.512;10.206;2023-07-31T00:24:01;15.00;99.90
45729;DHT22;31439;53.512;10.206;2023-07-31T00:26:40;15.10;99.90
45729;DHT22;31439;53.512;10.206;2023-07-31T00:29:15;14.70;99.90
45729;DHT22;31439;53.512;10.206;2023-07-31T00:31:43;15.10;99.90
45729;DHT22;31439;53.512;10.206;2023-07-31T00:34:16;15.00;99.90
45729;DHT22;31439;53.512;10.206;2023-07-31T00:36:57;15.00;99.90
45729;DHT22;31439;53.512;10.206;2023-07-31T00:39:25;14.60;99.90
45729;DHT22;31439;53.512;10.206;2023-07-31T00:42:00;15.00;99.90
45729;DHT22;31439;53.512;10.206;2023-07-31T00:44:45;15.00;99.90
45729;DHT22;31439;53.512;10.206;2023-07-31T00:47:31;15.10;99.90
45729;DHT22;31439;53.512;10.206;2023-07-31T00:50:02;16.50;99.90
45729;DHT22;31439;53.512;10.206;2023-07-31T00:52:39;14.70;99.90
45729;DHT22;31439;53.512;10.206;2023-07-31T00:55:10;15.00;99.90
45729;DHT22;31439;53.512;10.206;2023-07-31T00:57:48;15.10;99.90
45729;DHT22;31439;53.512;10.206;2023-07-31T01:00:22;15.10;99.90
45729;DHT22;31439;53.512;10.206;2023-07-31T01:03:15;15.40;99.90
45729;DHT22;31439;53.512;10.206;2023-07-31T01:09:06;14.80;99.90
45729;DHT22;31439;53.512;10.206;2023-07-31T01:14:32;15.10;99.90
45729;DHT22;31439;53.512;10.206;2023-07-31T01:17:06;14.80;99.90
45729;DHT22;31439;53.512;10.206;2023-07-31T01:19:41;14.90;99.90
45729;DHT22;31439;53.512;10.206;2023-07-31T01:31:20;15.20;99.90
45729;DHT22;31439;53.512;10.206;2023-07-31T01:33:47;15.10;99.90
45729;DHT22;31439;53.512;10.206;2023-07-31T01:36:14;15.10;99.90
45729;DHT22;31439;53.512;10.206;2023-07-31T01:38:39;15.10;99.90
45729;DHT22;31439;53.512;10.206;2023-07-31T01:41:05;15.10;99.90
45729;DHT22;31439;53.512;10.206;2023-07-31T01:43:30;15.10;99.90
45729;DHT22;31439;53.512;10.206;2023-07-31T01:45:56;15.10;99.90
45729;DHT22;31439;53.512;10.206;2023-07-31T01:48:21;15.10;99.90
45729;DHT22;31439;53.512;10.206;2023-07-31T01:50:47;15.10;99.90
45729;DHT22;31439;53.512;10.206;2023-07-31T01:53:12;15.20;99.90
45729;DHT22;31439;53.512;10.206;2023-07-31T01:55:38;15.20;99.90
45729;DHT22;31439;53.512;10.206;2023-07-31T01:58:05;15.20;99.90
45729;DHT22;31439;53.512;10.206;2023-07-31T02:00:31;15.20;99.90
45729;DHT22;31439;53.512;10.206;2023-07-31T02:02:56;15.20;99.90
45729;DHT22;31439;53.512;10.206;2023-07-31T02:05:22;15.20;99.90
45729;DHT22;31439;53.512;10.206;2023-07-31T02:07:47;15.20;99.90
45729;DHT22;31439;53.512;10.206;2023-07-31T02:10:13;15.20;99.90
45729;DHT22;31439;53.512;10.206;2023-07-31T02:12:39;15.20;99.90
45729;DHT22;31439;53.512;10.206;2023-07-31T02:15:05;15.20;99.90
45729;DHT22;31439;53.512;10.206;2023-07-31T02:17:30;15.20;99.90
45729;DHT22;31439;53.512;10.206;2023-07-31T02:19:56;15.20;99.90
45729;DHT22;31439;53.512;10.206;2023-07-31T02:22:21;15.20;99.90
45729;DHT22;31439;53.512;10.206;2023-07-31T02:24:47;15.20;99.90
45729;DHT22;31439;53.512;10.206;2023-07-31T02:27:12;15.30;99.90
45729;DHT22;31439;53.512;10.206;2023-07-31T02:29:38;15.20;99.90
45729;DHT22;31439;53.512;10.206;2023-07-31T02:32:04;15.30;99.90
45729;DHT22;31439;53.512;10.206;2023-07-31T02:34:30;15.30;99.90
45729;DHT22;31439;53.512;10.206;2023-07-31T02:36:55;15.30;99.90
45729;DHT22;31439;53.512;10.206;2023-07-31T02:39:21;15.30;99.90
45729;DHT22;31439;53.512;10.206;2023-07-31T02:41:46;15.40;99.90
45729;DHT22;31439;53.512;10.206;2023-07-31T02:44:12;15.40;99.90
45729;DHT22;31439;53.512;10.206;2023-07-31T02:46:40;15.40;99.90
45729;DHT22;31439;53.512;10.206;2023-07-31T02:49:05;15.40;99.90
45729;DHT22;31439;53.512;10.206;2023-07-31T02:51:31;15.30;99.90
45729;DHT22;31439;53.512;10.206;2023-07-31T02:53:56;15.30;99.90
45729;DHT22;31439;53.512;10.206;2023-07-31T02:56:22;15.30;99.90
45729;DHT22;31439;53.512;10.206;2023-07-31T02:58:47;15.30;99.90
45729;DHT22;31439;53.512;10.206;2023-07-31T03:01:13;15.40;99.90
45729;DHT22;31439;53.512;10.206;2023-07-31T03:03:40;15.40;99.90
45729;DHT22;31439;53.512;10.206;2023-07-31T03:06:06;15.30;99.90
45729;DHT22;31439;53.512;10.206;2023-07-31T03:08:31;15.30;99.90
45729;DHT22;31439;53.512;10.206;2023-07-31T03:10:57;15.40;99.90
45729;DHT22;31439;53.512;10.206;2023-07-31T03:13:22;15.40;99.90
45729;DHT22;31439;53.512;10.206;2023-07-31T03:15:48;15.30;99.90
45729;DHT22;31439;53.512;10.206;2023-07-31T03:18:13;15.40;99.90
45729;DHT22;31439;53.512;10.206;2023-07-31T03:20:42;15.30;99.90
45729;DHT22;31439;53.512;10.206;2023-07-31T03:23:09;15.40;99.90
45729;DHT22;31439;53.512;10.206;2023-07-31T03:25:35;15.40;99.90
45729;DHT22;31439;53.512;10.206;2023-07-31T03:28:00;15.40;99.90
45729;DHT22;31439;53.512;10.206;2023-07-31T03:30:26;15.50;99.90
45729;DHT22;31439;53.512;10.206;2023-07-31T03:32:52;15.40;99.90
45729;DHT22;31439;53.512;10.206;2023-07-31T03:35:17;15.40;99.90
45729;DHT22;31439;53.512;10.206;2023-07-31T03:37:43;15.40;99.90
45729;DHT22;31439;53.512;10.206;2023-07-31T03:40:09;15.40;99.90
45729;DHT22;31439;53.512;10.206;2023-07-31T03:42:34;15.40;99.90
45729;DHT22;31439;53.512;10.206;2023-07-31T03:45:00;15.50;99.90
45729;DHT22;31439;53.512;10.206;2023-07-31T03:47:26;15.60;99.90
45729;DHT22;31439;53.512;10.206;2023-07-31T03:49:51;15.50;99.90
45729;DHT22;31439;53.512;10.206;2023-07-31T03:52:17;15.50;99.90
45729;DHT22;31439;53.512;10.206;2023-07-31T03:54:43;15.50;99.90
45729;DHT22;31439;53.512;10.206;2023-07-31T03:57:10;15.60;99.90
45729;DHT22;31439;53.512;10.206;2023-07-31T03:59:35;15.60;99.90
45729;DHT22;31439;53.512;10.206;2023-07-31T04:02:01;15.60;99.90
45729;DHT22;31439;53.512;10.206;2023-07-31T04:04:27;15.60;99.90
45729;DHT22;31439;53.512;10.206;2023-07-31T04:06:52;15.60;99.90
45729;DHT22;31439;53.512;10.206;2023-07-31T04:09:18;15.60;99.90
45729;DHT22;31439;53.512;10.206;2023-07-31T04:11:43;15.70;99.90
45729;DHT22;31439;53.512;10.206;2023-07-31T04:14:09;15.60;99.90
45729;DHT22;31439;53.512;10.206;2023-07-31T04:16:35;15.60;99.90
45729;DHT22;31439;53.512;10.206;2023-07-31T04:19:00;15.60;99.90
45729;DHT22;31439;53.512;10.206;2023-07-31T04:21:26;15.60;99.90
45729;DHT22;31439;53.512;10.206;2023-07-31T04:23:51;15.60;99.90
45729;DHT22;31439;53.512;10.206;2023-07-31T04:26:21;15.60;99.90
45729;DHT22;31439;53.512;10.206;2023-07-31T04:28:46;15.60;99.90
45729;DHT22;31439;53.512;10.206;2023-07-31T04:31:12;15.60;99.90
45729;DHT22;31439;53.512;10.206;2023-07-31T04:33:37;15.60;99.90
45729;DHT22;31439;53.512;10.206;2023-07-31T04:36:03;15.60;99.90
45729;DHT22;31439;53.512;10.206;2023-07-31T04:38:29;15.60;99.90
45729;DHT22;31439;53.512;10.206;2023-07-31T04:40:54;15.60;99.90
45729;DHT22;31439;53.512;10.206;2023-07-31T04:43:20;15.60;99.90
45729;DHT22;31439;53.512;10.206;2023-07-31T04:45:46;15.60;99.90
45729;DHT22;31439;53.512;10.206;2023-07-31T04:48:13;15.60;99.90
45729;DHT22;31439;53.512;10.206;2023-07-31T04:50:38;15.60;99.90
45729;DHT22;31439;53.512;10.206;2023-07-31T04:53:04;15.60;99.90
45729;DHT22;31439;53.512;10.206;2023-07-31T04:55:30;15.60;99.90
45729;DHT22;31439;53.512;10.206;2023-07-31T04:57:55;15.60;99.90
45729;DHT22;31439;53.512;10.206;2023-07-31T05:00:21;15.60;99.90
45729;DHT22;31439;53.512;10.206;2023-07-31T05:02:46;15.60;99.90
45729;DHT22;31439;53.512;10.206;2023-07-31T05:05:12;15.70;99.90
45729;DHT22;31439;53.512;10.206;2023-07-31T05:07:37;15.70;99.90
45729;DHT22;31439;53.512;10.206;2023-07-31T05:10:03;15.60;99.90
45729;DHT22;31439;53.512;10.206;2023-07-31T05:12:29;15.60;99.90
45729;DHT22;31439;53.512;10.206;2023-07-31T05:14:55;15.70;99.90
45729;DHT22;31439;53.512;10.206;2023-07-31T05:17:20;15.60;99.90
45729;DHT22;31439;53.512;10.206;2023-07-31T05:19:46;15.60;99.90
45729;DHT22;31439;53.512;10.206;2023-07-31T05:22:12;15.70;99.90
45729;DHT22;31439;53.512;10.206;2023-07-31T05:24:37;15.70;99.90
45729;DHT22;31439;53.512;10.206;2023-07-31T05:27:03;15.70;99.90
45729;DHT22;31439;53.512;10.206;2023-07-31T05:29:29;15.70;99.90
45729;DHT22;31439;53.512;10.206;2023-07-31T05:31:54;15.70;99.90
45729;DHT22;31439;53.512;10.206;2023-07-31T05:34:20;15.70;99.90
45729;DHT22;31439;53.512;10.206;2023-07-31T05:36:46;15.60;99.90
45729;DHT22;31439;53.512;10.206;2023-07-31T05:39:11;15.60;99.90
45729;DHT22;31439;53.512;10.206;2023-07-31T05:41:37;15.60;99.90
45729;DHT22;31439;53.512;10.206;2023-07-31T05:44:03;15.70;99.90
45729;DHT22;31439;53.512;10.206;2023-07-31T05:46:29;15.60;99.90
45729;DHT22;31439;53.512;10.206;2023-07-31T05:48:54;15.60;99.90
45729;DHT22;31439;53.512;10.206;2023-07-31T05:51:20;15.70;99.90
45729;DHT22;31439;53.512;10.206;2023-07-31T05:53:45;15.70;99.90
45729;DHT22;31439;53.512;10.206;2023-07-31T05:56:11;15.90;99.90
45729;DHT22;31439;53.512;10.206;2023-07-31T05:58:36;15.80;99.90
45729;DHT22;31439;53.512;10.206;2023-07-31T06:01:02;15.80;99.90
45729;DHT22;31439;53.512;10.206;2023-07-31T06:03:27;15.80;99.90
45729;DHT22;31439;53.512;10.206;2023-07-31T06:05:53;15.80;99.90
45729;DHT22;31439;53.512;10.206;2023-07-31T06:08:19;15.90;99.90
45729;DHT22;31439;53.512;10.206;2023-07-31T06:10:44;15.80;99.90
45729;DHT22;31439;53.512;10.206;2023-07-31T06:13:10;15.70;99.90
45729;DHT22;31439;53.512;10.206;2023-07-31T06:15:35;15.80;99.90
45729;DHT22;31439;53.512;10.206;2023-07-31T06:18:01;15.70;99.90
45729;DHT22;31439;53.512;10.206;2023-07-31T06:20:28;15.70;99.90
45729;DHT22;31439;53.512;10.206;2023-07-31T06:22:54;15.80;99.90
45729;DHT22;31439;53.512;10.206;2023-07-31T06:25:19;15.90;99.90
45729;DHT22;31439;53.512;10.206;2023-07-31T06:27:45;15.80;99.90
45729;DHT22;31439;53.512;10.206;2023-07-31T06:30:11;15.80;99.90
45729;DHT22;31439;53.512;10.206;2023-07-31T06:32:37;15.80;99.90
45729;DHT22;31439;53.512;10.206;2023-07-31T06:35:02;15.80;99.90
45729;DHT22;31439;53.512;10.206;2023-07-31T06:37:28;15.80;99.90
45729;DHT22;31439;53.512;10.206;2023-07-31T06:39:54;16.00;99.90
45729;DHT22;31439;53.512;10.206;2023-07-31T06:42:19;15.90;99.90
45729;DHT22;31439;53.512;10.206;2023-07-31T06:44:45;15.90;99.90
45729;DHT22;31439;53.512;10.206;2023-07-31T06:47:13;15.90;99.90
45729;DHT22;31439;53.512;10.206;2023-07-31T06:49:54;15.90;99.90
45729;DHT22;31439;53.512;10.206;2023-07-31T06:52:19;15.90;99.90
45729;DHT22;31439;53.512;10.206;2023-07-31T06:55:00;15.90;99.90
45729;DHT22;31439;53.512;10.206;2023-07-31T06:57:27;16.00;99.90
45729;DHT22;31439;53.512;10.206;2023-07-31T06:59:52;16.00;99.90
45729;DHT22;31439;53.512;10.206;2023-07-31T07:02:18;16.00;99.90
45729;DHT22;31439;53.512;10.206;2023-07-31T07:04:43;16.00;99.90
45729;DHT22;31439;53.512;10.206;2023-07-31T07:07:09;16.10;99.90
45729;DHT22;31439;53.512;10.206;2023-07-31T07:09:34;16.10;99.90
45729;DHT22;31439;53.512;10.206;2023-07-31T07:12:00;16.10;99.90
45729;DHT22;31439;53.512;10.206;2023-07-31T07:14:26;16.10;99.90
45729;DHT22;31439;53.512;10.206;2023-07-31T07:16:52;16.10;99.90
45729;DHT22;31439;53.512;10.206;2023-07-31T07:19:17;16.00;99.90
45729;DHT22;31439;53.512;10.206;2023-07-31T07:21:43;16.10;99.90
45729;DHT22;31439;53.512;10.206;2023-07-31T07:24:08;16.10;99.90
45729;DHT22;31439;53.512;10.206;2023-07-31T07:26:34;16.10;99.90
45729;DHT22;31439;53.512;10.206;2023-07-31T07:28:59;16.10;99.90
45729;DHT22;31439;53.512;10.206;2023-07-31T07:31:27;16.20;99.90
45729;DHT22;31439;53.512;10.206;2023-07-31T07:33:53;16.20;99.90
45729;DHT22;31439;53.512;10.206;2023-07-31T07:36:19;16.30;99.90
45729;DHT22;31439;53.512;10.206;2023-07-31T07:38:45;16.30;99.90
45729;DHT22;31439;53.512;10.206;2023-07-31T07:41:10;16.30;99.90
45729;DHT22;31439;53.512;10.206;2023-07-31T07:43:36;16.30;99.90
45729;DHT22;31439;53.512;10.206;2023-07-31T07:46:01;16.20;99.90
45729;DHT22;31439;53.512;10.206;2023-07-31T07:48:27;16.30;99.90
45729;DHT22;31439;53.512;10.206;2023-07-31T07:50:53;16.30;99.90
45729;DHT22;31439;53.512;10.206;2023-07-31T07:53:18;16.30;99.90
45729;DHT22;31439;53.512;10.206;2023-07-31T07:55:44;16.40;99.90
45729;DHT22;31439;53.512;10.206;2023-07-31T07:58:09;16.40;99.90
45729;DHT22;31439;53.512;10.206;2023-07-31T08:00:35;16.50;99.90
45729;DHT22;31439;53.512;10.206;2023-07-31T08:03:00;16.50;99.90
45729;DHT22;31439;53.512;10.206;2023-07-31T08:05:26;16.50;99.90
45729;DHT22;31439;53.512;10.206;2023-07-31T08:07:51;16.50;99.90
45729;DHT22;31439;53.512;10.206;2023-07-31T08:10:17;16.50;99.90
45729;DHT22;31439;53.512;10.206;2023-07-31T08:12:43;16.50;99.90
45729;DHT22;31439;53.512;10.206;2023-07-31T08:15:08;16.50;99.90
45729;DHT22;31439;53.512;10.206;2023-07-31T08:17:34;16.50;99.90
45729;DHT22;31439;53.512;10.206;2023-07-31T08:19:59;16.60;99.90
45729;DHT22;31439;53.512;10.206;2023-07-31T08:22:25;16.60;99.90
45729;DHT22;31439;53.512;10.206;2023-07-31T08:24:51;16.60;99.90
45729;DHT22;31439;53.512;10.206;2023-07-31T08:27:16;16.50;99.90
45729;DHT22;31439;53.512;10.206;2023-07-31T08:29:42;16.60;99.90
45729;DHT22;31439;53.512;10.206;2023-07-31T08:32:13;16.60;99.90
45729;DHT22;31439;53.512;10.206;2023-07-31T08:34:39;16.60;99.90
45729;DHT22;31439;53.512;10.206;2023-07-31T08:37:05;16.60;99.90
45729;DHT22;31439;53.512;10.206;2023-07-31T08:39:30;16.60;99.90
45729;DHT22;31439;53.512;10.206;2023-07-31T08:41:59;16.60;99.90
45729;DHT22;31439;53.512;10.206;2023-07-31T08:44:27;16.70;99.90
45729;DHT22;31439;53.512;10.206;2023-07-31T08:46:55;16.70;99.90
45729;DHT22;31439;53.512;10.206;2023-07-31T08:49:21;16.70;99.90
45729;DHT22;31439;53.512;10.206;2023-07-31T08:51:50;16.80;99.90
45729;DHT22;31439;53.512;10.206;2023-07-31T08:54:16;16.80;99.90
45729;DHT22;31439;53.512;10.206;2023-07-31T08:56:42;16.80;99.90
45729;DHT22;31439;53.512;10.206;2023-07-31T08:59:08;16.80;99.90
45729;DHT22;31439;53.512;10.206;2023-07-31T09:01:37;16.90;99.90
45729;DHT22;31439;53.512;10.206;2023-07-31T09:04:09;16.80;99.90
45729;DHT22;31439;53.512;10.206;2023-07-31T09:06:36;16.90;99.90
45729;DHT22;31439;53.512;10.206;2023-07-31T09:09:02;17.00;99.90
45729;DHT22;31439;53.512;10.206;2023-07-31T09:11:28;17.00;99.90
45729;DHT22;31439;53.512;10.206;2023-07-31T09:13:57;17.00;99.90
45729;DHT22;31439;53.512;10.206;2023-07-31T09:16:29;16.90;99.90
45729;DHT22;31439;53.512;10.206;2023-07-31T09:18:57;16.90;99.90
45729;DHT22;31439;53.512;10.206;2023-07-31T09:21:24;17.00;99.90
45729;DHT22;31439;53.512;10.206;2023-07-31T09:23:51;17.00;99.90
45729;DHT22;31439;53.512;10.206;2023-07-31T09:26:33;17.00;99.90
45729;DHT22;31439;53.512;10.206;2023-07-31T09:29:00;17.00;99.90
45729;DHT22;31439;53.512;10.206;2023-07-31T09:31:33;17.00;99.90
45729;DHT22;31439;53.512;10.206;2023-07-31T09:34:03;17.10;99.90
45729;DHT22;31439;53.512;10.206;2023-07-31T09:36:29;17.10;99.90
45729;DHT22;31439;53.512;10.206;2023-07-31T09:39:02;17.10;99.90
45729;DHT22;31439;53.512;10.206;2023-07-31T09:41:28;17.10;99.90
45729;DHT22;31439;53.512;10.206;2023-07-31T09:43:54;17.10;99.90
45729;DHT22;31439;53.512;10.206;2023-07-31T09:46:20;17.10;99.90
45729;DHT22;31439;53.512;10.206;2023-07-31T09:48:47;17.00;99.90
45729;DHT22;31439;53.512;10.206;2023-07-31T09:51:12;17.00;99.90
45729;DHT22;31439;53.512;10.206;2023-07-31T09:53:38;17.10;99.90
45729;DHT22;31439;53.512;10.206;2023-07-31T09:56:04;17.10;99.90
45729;DHT22;31439;53.512;10.206;2023-07-31T09:58:34;17.10;99.90
45729;DHT22;31439;53.512;10.206;2023-07-31T10:01:01;17.20;99.90
45729;DHT22;31439;53.512;10.206;2023-07-31T10:03:27;17.20;99.90
45729;DHT22;31439;53.512;10.206;2023-07-31T10:05:55;17.20;99.90
45729;DHT22;31439;53.512;10.206;2023-07-31T10:08:27;17.20;99.90
45729;DHT22;31439;53.512;10.206;2023-07-31T10:10:58;17.10;99.90
45729;DHT22;31439;53.512;10.206;2023-07-31T10:13:24;17.10;99.90
45729;DHT22;31439;53.512;10.206;2023-07-31T10:15:50;17.10;99.90
45729;DHT22;31439;53.512;10.206;2023-07-31T10:18:16;17.10;99.90
45729;DHT22;31439;53.512;10.206;2023-07-31T10:20:44;17.10;99.90
45729;DHT22;31439;53.512;10.206;2023-07-31T10:23:10;17.10;99.90
45729;DHT22;31439;53.512;10.206;2023-07-31T10:25:37;17.10;99.90
45729;DHT22;31439;53.512;10.206;2023-07-31T10:28:04;17.00;99.90
45729;DHT22;31439;53.512;10.206;2023-07-31T10:30:31;17.00;99.90
45729;DHT22;31439;53.512;10.206;2023-07-31T10:32:58;16.90;99.90
45729;DHT22;31439;53.512;10.206;2023-07-31T10:35:24;17.00;99.90
45729;DHT22;31439;53.512;10.206;2023-07-31T10:38:17;17.10;99.90
45729;DHT22;31439;53.512;10.206;2023-07-31T10:40:54;17.00;99.90
45729;DHT22;31439;53.512;10.206;2023-07-31T11:13:45;16.90;99.90
45729;DHT22;31439;53.512;10.206;2023-07-31T11:22:39;17.40;99.90
45729;DHT22;31439;53.512;10.206;2023-07-31T11:25:41;17.50;99.90
45729;DHT22;31439;53.512;10.206;2023-07-31T11:34:03;17.50;99.90
45729;DHT22;31439;53.512;10.206;2023-07-31T12:03:24;17.40;99.90
45729;DHT22;31439;53.512;10.206;2023-07-31T12:13:50;17.70;99.90
45729;DHT22;31439;53.512;10.206;2023-07-31T12:41:27;17.60;99.90
45729;DHT22;31439;53.512;10.206;2023-07-31T12:47:35;17.80;99.90
45729;DHT22;31439;53.512;10.206;2023-07-31T12:58:07;18.20;99.90
45729;DHT22;31439;53.512;10.206;2023-07-31T13:00:36;17.60;99.90
45729;DHT22;31439;53.512;10.206;2023-07-31T13:03:22;17.60;99.90
45729;DHT22;31439;53.512;10.206;2023-07-31T13:06:37;17.40;99.90
45729;DHT22;31439;53.512;10.206;2023-07-31T13:18:13;17.70;99.90
45729;DHT22;31439;53.512;10.206;2023-07-31T13:20:50;17.80;99.90
45729;DHT22;31439;53.512;10.206;2023-07-31T13:24:23;17.70;99.90
45729;DHT22;31439;53.512;10.206;2023-07-31T13:27:03;16.50;99.90
45729;DHT22;31439;53.512;10.206;2023-07-31T13:29:29;17.70;99.90
45729;DHT22;31439;53.512;10.206;2023-07-31T13:31:55;17.70;99.90
45729;DHT22;31439;53.512;10.206;2023-07-31T13:34:21;17.70;99.90
45729;DHT22;31439;53.512;10.206;2023-07-31T13:36:46;17.70;99.90
45729;DHT22;31439;53.512;10.206;2023-07-31T13:39:12;17.70;99.90
45729;DHT22;31439;53.512;10.206;2023-07-31T13:41:38;17.70;99.90
45729;DHT22;31439;53.512;10.206;2023-07-31T13:44:03;17.80;99.90
45729;DHT22;31439;53.512;10.206;2023-07-31T13:46:29;17.70;99.90
45729;DHT22;31439;53.512;10.206;2023-07-31T13:48:54;17.80;99.90
45729;DHT22;31439;53.512;10.206;2023-07-31T13:51:21;17.80;99.90
45729;DHT22;31439;53.512;10.206;2023-07-31T13:53:47;17.80;99.90
45729;DHT22;31439;53.512;10.206;2023-07-31T13:56:13;17.80;99.90
45729;DHT22;31439;53.512;10.206;2023-07-31T13:58:39;17.80;99.90
45729;DHT22;31439;53.512;10.206;2023-07-31T14:01:04;17.90;99.90
45729;DHT22;31439;53.512;10.206;2023-07-31T14:03:30;17.90;99.90
45729;DHT22;31439;53.512;10.206;2023-07-31T14:05:56;17.90;99.90
45729;DHT22;31439;53.512;10.206;2023-07-31T14:08:22;18.00;99.90
45729;DHT22;31439;53.512;10.206;2023-07-31T14:10:48;18.00;99.90
45729;DHT22;31439;53.512;10.206;2023-07-31T14:13:13;18.00;99.90
45729;DHT22;31439;53.512;10.206;2023-07-31T14:15:42;18.00;99.90
45729;DHT22;31439;53.512;10.206;2023-07-31T14:18:07;18.00;99.90
45729;DHT22;31439;53.512;10.206;2023-07-31T14:20:33;18.00;99.90
45729;DHT22;31439;53.512;10.206;2023-07-31T14:22:59;18.00;99.90
45729;DHT22;31439;53.512;10.206;2023-07-31T14:25:25;18.00;99.90
45729;DHT22;31439;53.512;10.206;2023-07-31T14:27:50;18.00;99.90
45729;DHT22;31439;53.512;10.206;2023-07-31T14:30:16;18.00;99.90
45729;DHT22;31439;53.512;10.206;2023-07-31T14:32:42;17.90;99.90
45729;DHT22;31439;53.512;10.206;2023-07-31T14:35:08;17.90;99.90
45729;DHT22;31439;53.512;10.206;2023-07-31T14:37:41;18.00;99.90
45729;DHT22;31439;53.512;10.206;2023-07-31T14:40:08;18.00;99.90
45729;DHT22;31439;53.512;10.206;2023-07-31T14:42:35;18.00;99.90
45729;DHT22;31439;53.512;10.206;2023-07-31T14:45:01;18.00;99.90
45729;DHT22;31439;53.512;10.206;2023-07-31T14:47:26;17.60;99.90
45729;DHT22;31439;53.512;10.206;2023-07-31T14:49:52;17.90;99.90
45729;DHT22;31439;53.512;10.206;2023-07-31T14:52:18;17.90;99.90
45729;DHT22;31439;53.512;10.206;2023-07-31T14:54:44;17.90;99.90
45729;DHT22;31439;53.512;10.206;2023-07-31T14:57:10;17.90;99.90
45729;DHT22;31439;53.512;10.206;2023-07-31T14:59:35;17.90;99.90
45729;DHT22;31439;53.512;10.206;2023-07-31T15:02:01;17.90;99.90
45729;DHT22;31439;53.512;10.206;2023-07-31T15:04:29;17.80;99.90
45729;DHT22;31439;53.512;10.206;2023-07-31T15:06:54;17.90;99.90
45729;DHT22;31439;53.512;10.206;2023-07-31T15:09:20;17.90;99.90
45729;DHT22;31439;53.512;10.206;2023-07-31T15:11:46;17.90;99.90
45729;DHT22;31439;53.512;10.206;2023-07-31T15:14:11;17.90;99.90
45729;DHT22;31439;53.512;10.206;2023-07-31T15:16:39;17.90;99.90
45729;DHT22;31439;53.512;10.206;2023-07-31T15:24:16;17.90;99.90
45729;DHT22;31439;53.512;10.206;2023-07-31T15:38:31;17.70;99.90
45729;DHT22;31439;53.512;10.206;2023-07-31T15:40:56;17.70;99.90
45729;DHT22;31439;53.512;10.206;2023-07-31T15:43:22;17.80;99.90
45729;DHT22;31439;53.512;10.206;2023-07-31T15:45:48;17.80;99.90
45729;DHT22;31439;53.512;10.206;2023-07-31T15:48:13;17.80;99.90
45729;DHT22;31439;53.512;10.206;2023-07-31T15:50:39;17.90;99.90
45729;DHT22;31439;53.512;10.206;2023-07-31T15:53:05;17.90;99.90
45729;DHT22;31439;53.512;10.206;2023-07-31T15:55:30;17.90;99.90
45729;DHT22;31439;53.512;10.206;2023-07-31T15:57:56;17.90;99.90
45729;DHT22;31439;53.512;10.206;2023-07-31T16:00:21;17.90;99.90
45729;DHT22;31439;53.512;10.206;2023-07-31T16:02:48;17.60;99.90
45729;DHT22;31439;53.512;10.206;2023-07-31T16:05:13;17.80;99.90
45729;DHT22;31439;53.512;10.206;2023-07-31T16:07:39;17.80;99.90
45729;DHT22;31439;53.512;10.206;2023-07-31T16:10:05;17.70;99.90
45729;DHT22;31439;53.512;10.206;2023-07-31T16:12:32;17.70;99.90
45729;DHT22;31439;53.512;10.206;2023-07-31T16:14:58;17.70;99.90
45729;DHT22;31439;53.512;10.206;2023-07-31T16:17:24;17.70;99.90
45729;DHT22;31439;53.512;10.206;2023-07-31T16:19:49;17.70;99.90
45729;DHT22;31439;53.512;10.206;2023-07-31T16:22:19;17.70;99.90
45729;DHT22;31439;53.512;10.206;2023-07-31T16:24:47;17.70;99.90
45729;DHT22;31439;53.512;10.206;2023-07-31T16:27:13;17.70;99.90
45729;DHT22;31439;53.512;10.206;2023-07-31T16:29:39;17.70;99.90
45729;DHT22;31439;53.512;10.206;2023-07-31T16:32:04;17.70;99.90
45729;DHT22;31439;53.512;10.206;2023-07-31T16:34:31;17.70;99.90
45729;DHT22;31439;53.512;10.206;2023-07-31T16:36:56;17.70;99.90
45729;DHT22;31439;53.512;10.206;2023-07-31T17:04:19;17.60;99.90
45729;DHT22;31439;53.512;10.206;2023-07-31T17:06:49;17.50;99.90
45729;DHT22;31439;53.512;10.206;2023-07-31T17:09:28;17.40;99.90
45729;DHT22;31439;53.512;10.206;2023-07-31T17:15:34;17.40;99.90
45729;DHT22;31439;53.512;10.206;2023-07-31T17:18:17;17.60;99.90
45729;DHT22;31439;53.512;10.206;2023-07-31T17:20:49;17.40;99.90
45729;DHT22;31439;53.512;10.206;2023-07-31T17:23:17;17.70;99.90
45729;DHT22;31439;53.512;10.206;2023-07-31T17:25:44;17.70;99.90
45729;DHT22;31439;53.512;10.206;2023-07-31T17:28:10;17.70;99.90
45729;DHT22;31439;53.512;10.206;2023-07-31T17:30:35;17.70;99.90
45729;DHT22;31439;53.512;10.206;2023-07-31T17:33:01;17.80;99.90
45729;DHT22;31439;53.512;10.206;2023-07-31T17:35:27;17.30;99.90
45729;DHT22;31439;53.512;10.206;2023-07-31T17:37:52;17.70;99.90
45729;DHT22;31439;53.512;10.206;2023-07-31T17:40:18;17.80;99.90
45729;DHT22;31439;53.512;10.206;2023-07-31T17:42:43;17.90;99.90
45729;DHT22;31439;53.512;10.206;2023-07-31T17:45:09;17.90;99.90
45729;DHT22;31439;53.512;10.206;2023-07-31T17:47:35;17.90;99.90
45729;DHT22;31439;53.512;10.206;2023-07-31T17:50:01;17.90;99.90
45729;DHT22;31439;53.512;10.206;2023-07-31T17:52:26;17.90;99.90
45729;DHT22;31439;53.512;10.206;2023-07-31T17:54:52;18.00;99.90
45729;DHT22;31439;53.512;10.206;2023-07-31T17:57:20;18.10;99.90
45729;DHT22;31439;53.512;10.206;2023-07-31T17:59:45;17.90;99.90
45729;DHT22;31439;53.512;10.206;2023-07-31T18:02:11;17.90;99.90
45729;DHT22;31439;53.512;10.206;2023-07-31T18:04:37;17.90;99.90
45729;DHT22;31439;53.512;10.206;2023-07-31T18:07:02;17.90;99.90
45729;DHT22;31439;53.512;10.206;2023-07-31T18:09:28;17.90;99.90
45729;DHT22;31439;53.512;10.206;2023-07-31T18:11:53;17.90;99.90
45729;DHT22;31439;53.512;10.206;2023-07-31T18:14:20;17.90;99.90
45729;DHT22;31439;53.512;10.206;2023-07-31T18:16:49;17.70;99.90
45729;DHT22;31439;53.512;10.206;2023-07-31T18:19:15;17.80;99.90
45729;DHT22;31439;53.512;10.206;2023-07-31T18:21:40;17.80;99.90